createdAt,value
2022-08-29T00:03:10.098Z,69.41
2022-08-29T00:08:13.265Z,70.36
2022-08-29T00:13:16.194Z,72.77
2022-08-29T00:18:20.588Z,75.65
2022-08-29T00:23:23.121Z,79.85
2022-08-29T00:28:25.744Z,75.81
2022-08-29T00:33:29.073Z,71.87
2022-08-29T00:38:31.716Z,66.46
2022-08-29T00:43:36.441Z,73.06
2022-08-29T00:48:40.799Z,72.05
2022-08-29T00:53:45.860Z,73.58
2022-08-29T00:58:57.735Z,74.00
2022-08-29T01:04:00.749Z,74.48
2022-08-29T01:09:05.480Z,70.05
2022-08-29T01:14:09.123Z,70.35
2022-08-29T01:19:34.614Z,74.77
2022-08-29T01:24:40.295Z,69.51
2022-08-29T01:29:43.423Z,73.95
2022-08-29T01:34:46.063Z,80.18
2022-08-29T01:39:48.652Z,83.24
2022-08-29T01:44:53.559Z,87.77
2022-08-29T01:49:57.125Z,83.86
2022-08-29T01:54:59.955Z,79.91
2022-08-29T02:00:04.325Z,77.06
2022-08-29T02:05:07.726Z,78.18
2022-08-29T02:10:10.694Z,74.79
2022-08-29T02:15:13.682Z,75.11
2022-08-29T02:20:16.893Z,78.29
2022-08-29T02:25:38.132Z,71.24
2022-08-29T02:30:46.262Z,79.15
2022-08-29T02:35:53.474Z,79.27
2022-08-29T02:40:56.220Z,76.86
2022-08-29T02:45:59.639Z,75.83
2022-08-29T02:51:02.091Z,75.53
2022-08-29T02:56:04.580Z,78.75
2022-08-29T03:01:10.657Z,78.50
2022-08-29T03:06:13.731Z,74.71
2022-08-29T03:11:17.288Z,75.87
2022-08-29T03:16:19.834Z,76.56
2022-08-29T03:21:25.309Z,73.35
2022-08-29T03:26:28.036Z,75.21
2022-08-29T03:31:31.217Z,78.73
2022-08-29T03:36:34.282Z,78.33
2022-08-29T03:41:36.870Z,76.33
2022-08-29T03:46:39.752Z,76.43
2022-08-29T03:51:42.502Z,72.50
2022-08-29T03:56:46.193Z,76.57
2022-08-29T04:01:49.272Z,76.19
2022-08-29T04:06:52.135Z,76.02
2022-08-29T04:11:54.767Z,71.42
2022-08-29T04:16:58.188Z,76.57
2022-08-29T04:22:00.935Z,73.98
2022-08-29T04:27:03.543Z,76.62
2022-08-29T04:32:06.136Z,71.22
2022-08-29T04:37:08.725Z,78.25
2022-08-29T04:42:15.113Z,78.28
2022-08-29T04:47:22.284Z,74.61
2022-08-29T04:52:26.337Z,72.53
2022-08-29T04:57:28.880Z,80.47
2022-08-29T05:02:31.496Z,83.00
2022-08-29T05:07:34.123Z,78.37
2022-08-29T05:12:40.962Z,76.51
2022-08-29T05:17:44.231Z,76.92
2022-08-29T05:22:47.189Z,74.76
2022-08-29T05:27:49.620Z,73.43
2022-08-29T05:32:52.379Z,77.30
2022-08-29T05:37:55.133Z,75.45
2022-08-29T05:42:57.714Z,74.69
2022-08-29T05:48:05.016Z,78.16
2022-08-29T05:53:08.902Z,72.94
2022-08-29T05:58:12.663Z,71.71
2022-08-29T06:03:15.658Z,69.07
2022-08-29T06:08:19.331Z,73.73
2022-08-29T06:13:21.824Z,76.91
2022-08-29T06:18:34.461Z,74.20
2022-08-29T06:23:40.543Z,66.59
2022-08-29T06:28:46.066Z,66.79
2022-08-29T06:33:52.197Z,69.99
2022-08-29T06:39:02.946Z,71.02
2022-08-29T06:44:06.396Z,65.60
2022-08-29T06:49:11.434Z,69.85
2022-08-29T06:54:14.856Z,67.02
2022-08-29T06:59:19.028Z,64.75
2022-08-29T07:04:21.620Z,65.24
2022-08-29T07:09:26.204Z,65.36
2022-08-29T07:14:28.909Z,64.98
2022-08-29T07:19:31.424Z,65.19
2022-08-29T07:24:34.383Z,64.54
2022-08-29T07:29:36.833Z,64.67
2022-08-29T07:34:39.388Z,63.83
2022-08-29T07:39:41.864Z,62.42
2022-08-29T07:44:44.549Z,61.62
2022-08-29T07:49:47.459Z,60.74
2022-08-29T07:54:49.948Z,59.18
2022-08-29T07:59:52.574Z,57.75
2022-08-29T08:04:55.073Z,58.67
2022-08-29T08:09:57.662Z,58.41
2022-08-29T08:15:00.956Z,57.59
2022-08-29T08:20:07.318Z,55.08
2022-08-29T08:25:10.098Z,52.23
2022-08-29T08:30:13.480Z,52.52
2022-08-29T08:35:16.429Z,52.75
2022-08-29T08:40:26.712Z,53.01
2022-08-29T08:45:38.287Z,49.97
2022-08-29T08:50:43.639Z,51.54
2022-08-29T08:55:49.824Z,52.02
2022-08-29T09:00:58.610Z,50.16
2022-08-29T09:06:06.156Z,49.44
2022-08-29T09:11:38.569Z,47.96
2022-08-29T09:16:46.427Z,47.22
2022-08-29T09:21:55.445Z,46.21
2022-08-29T09:26:58.068Z,44.22
2022-08-29T09:32:16.578Z,46.58
2022-08-29T09:37:28.944Z,47.23
2022-08-29T09:42:36.729Z,45.44
2022-08-29T09:47:39.937Z,44.40
2022-08-29T09:52:56.442Z,40.55
2022-08-29T09:58:02.010Z,39.24
2022-08-29T10:03:09.070Z,41.78
2022-08-29T10:08:31.284Z,41.24
2022-08-29T10:13:50.280Z,41.12
2022-08-29T10:19:01.427Z,42.10
2022-08-29T10:24:24.742Z,39.96
2022-08-29T10:29:31.823Z,40.19
2022-08-29T10:35:06.044Z,39.53
2022-08-29T10:40:43.273Z,39.11
2022-08-29T10:46:23.874Z,37.69
2022-08-29T10:51:40.366Z,39.39
2022-08-29T10:56:46.528Z,38.99
2022-08-29T11:02:03.172Z,39.79
2022-08-29T11:07:16.420Z,40.37
2022-08-29T11:12:25.128Z,39.83
2022-08-29T11:17:40.867Z,38.35
2022-08-29T11:22:53.222Z,40.03
2022-08-29T11:28:04.141Z,39.17
2022-08-29T11:33:37.711Z,37.53
2022-08-29T11:38:55.471Z,37.81
2022-08-29T11:44:34.664Z,38.48
2022-08-29T11:49:48.654Z,37.66
2022-08-29T11:55:28.530Z,34.34
2022-08-29T12:00:45.035Z,31.58
2022-08-29T12:05:58.008Z,33.83
2022-08-29T12:11:01.726Z,35.29
2022-08-29T12:16:11.628Z,35.69
2022-08-29T12:21:39.301Z,43.51
2022-08-29T12:26:44.995Z,45.36
2022-08-29T12:32:22.245Z,45.16
2022-08-29T12:37:40.978Z,49.21
2022-08-29T12:43:06.681Z,51.45
2022-08-29T12:48:15.697Z,50.26
2022-08-29T12:53:25.479Z,50.70
2022-08-29T12:58:41.812Z,51.17
2022-08-29T13:03:59.424Z,50.26
2022-08-29T13:09:06.218Z,51.65
2022-08-29T13:14:12.044Z,46.63
2022-08-29T13:19:25.023Z,36.91
2022-08-29T13:24:27.683Z,38.92
2022-08-29T13:29:39.900Z,37.99
2022-08-29T13:35:21.144Z,32.09
2022-08-29T13:40:36.728Z,35.37
2022-08-29T13:45:39.877Z,33.62
2022-08-29T13:50:42.513Z,34.90
2022-08-29T13:55:45.282Z,34.38
2022-08-29T14:00:47.832Z,33.47
2022-08-29T14:05:56.437Z,34.27
2022-08-29T14:10:59.315Z,34.55
2022-08-29T14:16:02.330Z,41.82
2022-08-29T14:21:05.060Z,42.68
2022-08-29T14:26:08.740Z,41.09
2022-08-29T14:31:11.582Z,41.39
2022-08-29T14:36:14.149Z,47.03
2022-08-29T14:41:17.006Z,44.83
2022-08-29T14:46:51.728Z,39.19
2022-08-29T14:51:54.564Z,39.12
2022-08-29T14:57:07.209Z,40.99
2022-08-29T15:02:10.749Z,41.73
2022-08-29T15:07:14.125Z,42.64
2022-08-29T15:12:21.669Z,41.05
2022-08-29T15:17:25.405Z,36.20
2022-08-29T15:22:28.323Z,39.24
2022-08-29T15:27:31.445Z,41.29
2022-08-29T15:32:34.690Z,42.23
2022-08-29T15:37:37.787Z,44.37
2022-08-29T15:42:40.372Z,45.16
2022-08-29T15:47:46.446Z,42.74
2022-08-29T15:52:49.024Z,46.14
2022-08-29T15:57:52.825Z,48.18
2022-08-29T16:02:55.785Z,49.16
2022-08-29T16:07:58.245Z,49.80
2022-08-29T16:13:00.982Z,50.14
2022-08-29T16:18:04.579Z,49.95
2022-08-29T16:23:07.545Z,49.40
2022-08-29T16:28:10.066Z,50.56
2022-08-29T16:33:12.612Z,50.40
2022-08-29T16:38:15.382Z,46.12
2022-08-29T16:43:18.460Z,50.03
2022-08-29T16:48:20.978Z,51.56
2022-08-29T16:53:23.631Z,52.74
2022-08-29T16:58:44.668Z,53.80
2022-08-29T17:03:47.332Z,53.51
2022-08-29T17:08:49.771Z,53.43
2022-08-29T17:13:55.380Z,54.58
2022-08-29T17:18:57.921Z,54.91
2022-08-29T17:24:02.319Z,54.44
2022-08-29T17:29:06.644Z,54.28
2022-08-29T17:34:10.412Z,54.19
2022-08-29T17:39:13.059Z,53.99
2022-08-29T17:44:15.539Z,55.88
2022-08-29T17:49:18.342Z,54.67
2022-08-29T17:54:23.003Z,55.75
2022-08-29T17:59:27.880Z,55.36
2022-08-29T18:04:30.387Z,55.29
2022-08-29T18:09:32.983Z,54.40
2022-08-29T18:14:35.696Z,54.70
2022-08-29T18:19:38.692Z,55.02
2022-08-29T18:24:41.098Z,55.55
2022-08-29T18:29:45.350Z,56.34
2022-08-29T18:34:48.228Z,56.03
2022-08-29T18:39:50.719Z,55.25
2022-08-29T18:44:54.631Z,56.25
2022-08-29T18:50:15.707Z,56.44
2022-08-29T18:55:18.311Z,53.86
2022-08-29T19:00:22.504Z,50.44
2022-08-29T19:05:26.855Z,54.81
2022-08-29T19:10:31.870Z,51.56
2022-08-29T19:15:41.235Z,51.72
2022-08-29T19:21:02.585Z,52.04
2022-08-29T19:26:09.983Z,55.81
2022-08-29T19:31:14.491Z,57.76
2022-08-29T19:36:20.828Z,53.43
2022-08-29T19:41:24.029Z,53.17
2022-08-29T19:46:27.731Z,58.31
2022-08-29T19:51:32.812Z,59.35
2022-08-29T19:56:36.207Z,55.67
2022-08-29T20:01:40.133Z,57.50
2022-08-29T20:06:42.662Z,57.11
2022-08-29T20:11:46.507Z,55.86
2022-08-29T20:16:49.374Z,56.18
2022-08-29T20:21:53.054Z,52.73
2022-08-29T20:26:55.549Z,58.11
2022-08-29T20:32:00.038Z,59.70
2022-08-29T20:37:14.139Z,54.19
2022-08-29T20:42:20.384Z,55.32
2022-08-29T20:47:24.317Z,59.20
2022-08-29T20:52:26.888Z,60.79
2022-08-29T20:57:29.827Z,59.69
2022-08-29T21:02:51.244Z,58.86
2022-08-29T21:07:53.759Z,56.82
2022-08-29T21:12:56.203Z,59.69
2022-08-29T21:17:59.176Z,57.18
2022-08-29T21:23:04.106Z,55.39
2022-08-29T21:28:07.247Z,58.70
2022-08-29T21:33:10.827Z,60.68
2022-08-29T21:38:13.376Z,58.35
2022-08-29T21:43:16.010Z,55.61
2022-08-29T21:48:18.564Z,59.92
2022-08-29T21:53:21.194Z,55.39
2022-08-29T21:58:23.636Z,58.88
2022-08-29T22:03:26.282Z,59.65
2022-08-29T22:08:28.934Z,63.12
2022-08-29T22:13:31.450Z,60.49
2022-08-29T22:18:34.053Z,61.73
2022-08-29T22:23:36.601Z,62.05
2022-08-29T22:28:39.199Z,58.03
2022-08-29T22:33:42.139Z,60.33
2022-08-29T22:38:46.764Z,62.02
2022-08-29T22:44:11.367Z,59.62
2022-08-29T22:49:16.250Z,61.87
2022-08-29T22:54:37.582Z,61.57
2022-08-29T22:59:41.574Z,60.04
2022-08-29T23:04:44.279Z,62.70
2022-08-29T23:09:47.260Z,63.93
2022-08-29T23:14:49.935Z,61.55
2022-08-29T23:19:52.370Z,60.62
2022-08-29T23:24:58.350Z,60.32
2022-08-29T23:30:02.103Z,60.24
2022-08-29T23:35:07.596Z,62.57
2022-08-29T23:40:10.439Z,65.50
2022-08-29T23:45:13.032Z,64.35
2022-08-29T23:50:16.448Z,61.39
2022-08-29T23:55:18.968Z,62.61
